sensor_id;sensor_type;location;lat;lon;timestamp;P1;durP1;ratioP1;P2;durP2;ratioP2
33553;SDS011;19885;42.208;24.952;2022-08-05T09:39:00;7.25;;;3.00;;
33553;SDS011;19885;42.208;24.952;2022-08-05T09:41:28;6.28;;;2.13;;
33553;SDS011;19885;42.208;24.952;2022-08-05T09:43:53;4.75;;;2.10;;
33553;SDS011;19885;42.208;24.952;2022-08-05T09:48:50;8.07;;;2.45;;
33553;SDS011;19885;42.208;24.952;2022-08-05T09:51:27;10.95;;;2.67;;
33553;SDS011;19885;42.208;24.952;2022-08-05T09:54:01;3.15;;;2.08;;
33553;SDS011;19885;42.208;24.952;2022-08-05T09:56:31;8.05;;;2.67;;
33553;SDS011;19885;42.208;24.952;2022-08-05T09:58:59;8.73;;;1.95;;
33553;SDS011;19885;42.208;24.952;2022-08-05T10:01:27;5.63;;;2.55;;
33553;SDS011;19885;42.208;24.952;2022-08-05T10:03:58;4.90;;;2.05;;
33553;SDS011;19885;42.208;24.952;2022-08-05T10:06:28;3.72;;;1.88;;
33553;SDS011;19885;42.208;24.952;2022-08-05T10:09:08;4.20;;;2.35;;
33553;SDS011;19885;42.208;24.952;2022-08-05T10:11:39;4.05;;;2.10;;
33553;SDS011;19885;42.208;24.952;2022-08-05T10:16:56;6.95;;;2.55;;
33553;SDS011;19885;42.208;24.952;2022-08-05T10:19:37;2.00;;;1.85;;
33553;SDS011;19885;42.208;24.952;2022-08-05T10:22:03;5.78;;;1.98;;
33553;SDS011;19885;42.208;24.952;2022-08-05T10:24:29;7.40;;;2.25;;
33553;SDS011;19885;42.208;24.952;2022-08-05T10:26:57;2.47;;;1.75;;
33553;SDS011;19885;42.208;24.952;2022-08-05T10:29:24;3.15;;;2.00;;
33553;SDS011;19885;42.208;24.952;2022-08-05T10:31:53;4.88;;;2.40;;
33553;SDS011;19885;42.208;24.952;2022-08-05T10:34:19;3.60;;;1.73;;
33553;SDS011;19885;42.208;24.952;2022-08-05T10:36:46;7.72;;;1.95;;
33553;SDS011;19885;42.208;24.952;2022-08-05T10:39:20;2.88;;;2.38;;
33553;SDS011;19885;42.208;24.952;2022-08-05T10:41:54;4.95;;;2.50;;
33553;SDS011;19885;42.208;24.952;2022-08-05T10:44:28;2.65;;;2.08;;
33553;SDS011;19885;42.208;24.952;2022-08-05T10:46:56;2.83;;;1.92;;
33553;SDS011;19885;42.208;24.952;2022-08-05T10:49:22;5.05;;;2.55;;
33553;SDS011;19885;42.208;24.952;2022-08-05T10:51:54;3.53;;;2.35;;
33553;SDS011;19885;42.208;24.952;2022-08-05T10:54:46;3.08;;;2.28;;
33553;SDS011;19885;42.208;24.952;2022-08-05T10:57:24;5.55;;;2.55;;
33553;SDS011;19885;42.208;24.952;2022-08-05T11:00:05;4.82;;;2.63;;
33553;SDS011;19885;42.208;24.952;2022-08-05T11:02:34;2.38;;;1.90;;
33553;SDS011;19885;42.208;24.952;2022-08-05T11:05:01;2.95;;;2.13;;
33553;SDS011;19885;42.208;24.952;2022-08-05T11:07:32;11.65;;;2.65;;
33553;SDS011;19885;42.208;24.952;2022-08-05T11:09:59;6.40;;;2.20;;
33553;SDS011;19885;42.208;24.952;2022-08-05T11:15:25;2.20;;;2.00;;
33553;SDS011;19885;42.208;24.952;2022-08-05T11:20:48;6.25;;;2.63;;
33553;SDS011;19885;42.208;24.952;2022-08-05T11:26:22;2.25;;;1.65;;
33553;SDS011;19885;42.208;24.952;2022-08-05T11:28:49;1.75;;;1.65;;
33553;SDS011;19885;42.208;24.952;2022-08-05T11:31:16;2.45;;;1.70;;
33553;SDS011;19885;42.208;24.952;2022-08-05T11:36:58;1.92;;;1.83;;
33553;SDS011;19885;42.208;24.952;2022-08-05T11:39:45;2.05;;;1.70;;
33553;SDS011;19885;42.208;24.952;2022-08-05T11:42:12;3.20;;;2.53;;
33553;SDS011;19885;42.208;24.952;2022-08-05T11:44:40;13.73;;;2.20;;
33553;SDS011;19885;42.208;24.952;2022-08-05T11:47:06;4.40;;;2.20;;
33553;SDS011;19885;42.208;24.952;2022-08-05T11:49:32;2.15;;;1.95;;
33553;SDS011;19885;42.208;24.952;2022-08-05T11:51:57;2.58;;;2.22;;
33553;SDS011;19885;42.208;24.952;2022-08-05T11:56:52;3.80;;;1.60;;
33553;SDS011;19885;42.208;24.952;2022-08-05T11:59:27;2.33;;;2.08;;
33553;SDS011;19885;42.208;24.952;2022-08-05T12:01:55;1.73;;;1.63;;
33553;SDS011;19885;42.208;24.952;2022-08-05T12:04:24;2.10;;;1.60;;
33553;SDS011;19885;42.208;24.952;2022-08-05T12:06:58;3.35;;;2.20;;
33553;SDS011;19885;42.208;24.952;2022-08-05T12:09:25;15.85;;;1.70;;
33553;SDS011;19885;42.208;24.952;2022-08-05T12:11:53;6.32;;;2.05;;
33553;SDS011;19885;42.208;24.952;2022-08-05T12:14:19;1.55;;;1.45;;
33553;SDS011;19885;42.208;24.952;2022-08-05T12:16:45;2.40;;;2.20;;
33553;SDS011;19885;42.208;24.952;2022-08-05T12:19:11;2.42;;;2.10;;
33553;SDS011;19885;42.208;24.952;2022-08-05T12:21:45;1.52;;;1.42;;
33553;SDS011;19885;42.208;24.952;2022-08-05T12:24:18;2.15;;;1.42;;
33553;SDS011;19885;42.208;24.952;2022-08-05T12:26:49;2.35;;;1.95;;
33553;SDS011;19885;42.208;24.952;2022-08-05T12:29:23;1.92;;;1.60;;
33553;SDS011;19885;42.208;24.952;2022-08-05T12:31:55;2.33;;;1.90;;
33553;SDS011;19885;42.208;24.952;2022-08-05T12:34:29;2.63;;;1.92;;
33553;SDS011;19885;42.208;24.952;2022-08-05T12:36:59;1.75;;;1.40;;
33553;SDS011;19885;42.208;24.952;2022-08-05T12:39:34;4.90;;;2.38;;
33553;SDS011;19885;42.208;24.952;2022-08-05T12:42:02;3.60;;;2.30;;
33553;SDS011;19885;42.208;24.952;2022-08-05T12:44:33;3.20;;;1.70;;
33553;SDS011;19885;42.208;24.952;2022-08-05T12:46:59;2.75;;;1.30;;
33553;SDS011;19885;42.208;24.952;2022-08-05T12:49:25;2.33;;;1.75;;
33553;SDS011;19885;42.208;24.952;2022-08-05T12:52:13;2.85;;;1.83;;
33553;SDS011;19885;42.208;24.952;2022-08-05T12:54:40;1.80;;;1.65;;
33553;SDS011;19885;42.208;24.952;2022-08-05T12:57:08;1.42;;;1.33;;
33553;SDS011;19885;42.208;24.952;2022-08-05T13:02:23;3.33;;;1.77;;
33553;SDS011;19885;42.208;24.952;2022-08-05T13:04:50;1.58;;;1.38;;
33553;SDS011;19885;42.208;24.952;2022-08-05T13:07:18;2.65;;;2.08;;
33553;SDS011;19885;42.208;24.952;2022-08-05T13:09:56;2.00;;;1.80;;
33553;SDS011;19885;42.208;24.952;2022-08-05T13:12:24;1.88;;;1.55;;
33553;SDS011;19885;42.208;24.952;2022-08-05T13:14:51;2.40;;;1.75;;
33553;SDS011;19885;42.208;24.952;2022-08-05T13:17:24;2.83;;;2.00;;
33553;SDS011;19885;42.208;24.952;2022-08-05T13:19:58;2.65;;;1.83;;
33553;SDS011;19885;42.208;24.952;2022-08-05T13:22:39;1.92;;;1.83;;
33553;SDS011;19885;42.208;24.952;2022-08-05T13:25:08;2.25;;;1.85;;
33553;SDS011;19885;42.208;24.952;2022-08-05T13:27:40;5.75;;;1.73;;
33553;SDS011;19885;42.208;24.952;2022-08-05T13:30:14;3.63;;;1.73;;
33553;SDS011;19885;42.208;24.952;2022-08-05T13:32:41;2.10;;;1.90;;
33553;SDS011;19885;42.208;24.952;2022-08-05T13:35:08;4.20;;;2.28;;
33553;SDS011;19885;42.208;24.952;2022-08-05T13:37:33;4.03;;;2.50;;
33553;SDS011;19885;42.208;24.952;2022-08-05T13:40:00;3.85;;;2.03;;
33553;SDS011;19885;42.208;24.952;2022-08-05T13:42:26;4.30;;;2.13;;
33553;SDS011;19885;42.208;24.952;2022-08-05T13:44:52;1.85;;;1.75;;
33553;SDS011;19885;42.208;24.952;2022-08-05T13:47:19;3.40;;;2.47;;
33553;SDS011;19885;42.208;24.952;2022-08-05T13:49:45;2.15;;;2.00;;
33553;SDS011;19885;42.208;24.952;2022-08-05T13:52:12;2.13;;;1.90;;
33553;SDS011;19885;42.208;24.952;2022-08-05T13:54:39;3.60;;;1.90;;
33553;SDS011;19885;42.208;24.952;2022-08-05T13:57:06;3.08;;;2.10;;
33553;SDS011;19885;42.208;24.952;2022-08-05T13:59:33;4.90;;;2.45;;
33553;SDS011;19885;42.208;24.952;2022-08-05T14:02:08;1.90;;;1.80;;
33553;SDS011;19885;42.208;24.952;2022-08-05T14:04:37;2.35;;;2.10;;
33553;SDS011;19885;42.208;24.952;2022-08-05T14:07:25;5.03;;;1.85;;
33553;SDS011;19885;42.208;24.952;2022-08-05T14:09:57;5.20;;;1.90;;
33553;SDS011;19885;42.208;24.952;2022-08-05T14:12:23;3.67;;;1.80;;
33553;SDS011;19885;42.208;24.952;2022-08-05T14:14:52;2.42;;;2.22;;
33553;SDS011;19885;42.208;24.952;2022-08-05T14:17:23;2.70;;;2.10;;
33553;SDS011;19885;42.208;24.952;2022-08-05T14:19:53;1.95;;;1.80;;
33553;SDS011;19885;42.208;24.952;2022-08-05T14:22:25;2.55;;;1.98;;
33553;SDS011;19885;42.208;24.952;2022-08-05T14:24:54;2.83;;;1.83;;
33553;SDS011;19885;42.208;24.952;2022-08-05T14:27:20;2.33;;;2.10;;
33553;SDS011;19885;42.208;24.952;2022-08-05T14:29:48;3.85;;;1.63;;
33553;SDS011;19885;42.208;24.952;2022-08-05T14:32:20;5.68;;;2.03;;
33553;SDS011;19885;42.208;24.952;2022-08-05T14:34:48;2.42;;;2.00;;
33553;SDS011;19885;42.208;24.952;2022-08-05T14:37:14;2.63;;;2.10;;
33553;SDS011;19885;42.208;24.952;2022-08-05T14:39:39;7.43;;;1.98;;
33553;SDS011;19885;42.208;24.952;2022-08-05T14:42:08;3.42;;;1.88;;
33553;SDS011;19885;42.208;24.952;2022-08-05T14:44:37;5.22;;;2.00;;
33553;SDS011;19885;42.208;24.952;2022-08-05T14:47:02;4.85;;;2.10;;
33553;SDS011;19885;42.208;24.952;2022-08-05T14:49:32;1.73;;;1.63;;
33553;SDS011;19885;42.208;24.952;2022-08-05T14:52:01;2.80;;;2.30;;
33553;SDS011;19885;42.208;24.952;2022-08-05T14:54:29;14.57;;;2.22;;
33553;SDS011;19885;42.208;24.952;2022-08-05T14:56:55;5.57;;;2.72;;
33553;SDS011;19885;42.208;24.952;2022-08-05T14:59:24;7.25;;;2.40;;
33553;SDS011;19885;42.208;24.952;2022-08-05T15:01:50;7.45;;;2.65;;
33553;SDS011;19885;42.208;24.952;2022-08-05T15:04:16;3.83;;;2.15;;
33553;SDS011;19885;42.208;24.952;2022-08-05T15:06:43;2.70;;;2.08;;
33553;SDS011;19885;42.208;24.952;2022-08-05T15:09:09;2.38;;;2.13;;
33553;SDS011;19885;42.208;24.952;2022-08-05T15:11:35;3.60;;;1.65;;
33553;SDS011;19885;42.208;24.952;2022-08-05T15:14:01;2.45;;;1.98;;
33553;SDS011;19885;42.208;24.952;2022-08-05T15:16:27;2.95;;;2.22;;
33553;SDS011;19885;42.208;24.952;2022-08-05T15:18:53;2.85;;;1.77;;
33553;SDS011;19885;42.208;24.952;2022-08-05T15:21:22;2.15;;;1.95;;
33553;SDS011;19885;42.208;24.952;2022-08-05T15:23:48;3.47;;;1.45;;
33553;SDS011;19885;42.208;24.952;2022-08-05T15:26:13;3.03;;;2.00;;
33553;SDS011;19885;42.208;24.952;2022-08-05T15:28:41;8.00;;;2.20;;
33553;SDS011;19885;42.208;24.952;2022-08-05T15:31:07;1.67;;;1.55;;
33553;SDS011;19885;42.208;24.952;2022-08-05T15:33:33;2.60;;;2.35;;
33553;SDS011;19885;42.208;24.952;2022-08-05T15:35:59;4.07;;;1.58;;
33553;SDS011;19885;42.208;24.952;2022-08-05T15:38:25;1.67;;;1.52;;
33553;SDS011;19885;42.208;24.952;2022-08-05T15:40:51;2.10;;;1.90;;
33553;SDS011;19885;42.208;24.952;2022-08-05T15:43:16;1.92;;;1.58;;
33553;SDS011;19885;42.208;24.952;2022-08-05T15:45:42;7.95;;;2.05;;
33553;SDS011;19885;42.208;24.952;2022-08-05T15:48:09;3.17;;;1.70;;
33553;SDS011;19885;42.208;24.952;2022-08-05T15:50:34;4.55;;;2.05;;
33553;SDS011;19885;42.208;24.952;2022-08-05T15:53:00;2.10;;;1.65;;
33553;SDS011;19885;42.208;24.952;2022-08-05T15:55:29;2.58;;;1.92;;
33553;SDS011;19885;42.208;24.952;2022-08-05T15:57:55;2.22;;;1.60;;
33553;SDS011;19885;42.208;24.952;2022-08-05T16:00:20;2.13;;;1.65;;
33553;SDS011;19885;42.208;24.952;2022-08-05T16:02:46;2.95;;;1.58;;
33553;SDS011;19885;42.208;24.952;2022-08-05T16:05:11;1.80;;;1.70;;
33553;SDS011;19885;42.208;24.952;2022-08-05T16:07:37;7.72;;;1.67;;
33553;SDS011;19885;42.208;24.952;2022-08-05T16:10:05;2.08;;;1.45;;
33553;SDS011;19885;42.208;24.952;2022-08-05T16:12:31;4.45;;;2.35;;
33553;SDS011;19885;42.208;24.952;2022-08-05T16:14:57;4.47;;;2.30;;
33553;SDS011;19885;42.208;24.952;2022-08-05T16:17:22;6.80;;;2.22;;
33553;SDS011;19885;42.208;24.952;2022-08-05T16:19:48;5.45;;;2.28;;
33553;SDS011;19885;42.208;24.952;2022-08-05T16:22:14;3.58;;;1.80;;
33553;SDS011;19885;42.208;24.952;2022-08-05T16:24:39;2.92;;;1.70;;
33553;SDS011;19885;42.208;24.952;2022-08-05T16:27:05;2.22;;;2.03;;
33553;SDS011;19885;42.208;24.952;2022-08-05T16:29:32;3.53;;;1.77;;
33553;SDS011;19885;42.208;24.952;2022-08-05T16:31:57;4.22;;;2.08;;
33553;SDS011;19885;42.208;24.952;2022-08-05T16:34:24;4.60;;;1.90;;
33553;SDS011;19885;42.208;24.952;2022-08-05T16:36:50;3.28;;;1.92;;
33553;SDS011;19885;42.208;24.952;2022-08-05T16:39:16;4.45;;;2.50;;
33553;SDS011;19885;42.208;24.952;2022-08-05T16:41:43;2.53;;;1.92;;
33553;SDS011;19885;42.208;24.952;2022-08-05T16:44:10;2.97;;;2.67;;
33553;SDS011;19885;42.208;24.952;2022-08-05T16:46:37;8.45;;;1.92;;
33553;SDS011;19885;42.208;24.952;2022-08-05T16:49:04;7.55;;;2.35;;
33553;SDS011;19885;42.208;24.952;2022-08-05T16:51:31;6.85;;;2.00;;
33553;SDS011;19885;42.208;24.952;2022-08-05T16:53:57;4.82;;;2.50;;
33553;SDS011;19885;42.208;24.952;2022-08-05T16:56:23;4.30;;;2.47;;
33553;SDS011;19885;42.208;24.952;2022-08-05T16:58:49;3.25;;;2.08;;
33553;SDS011;19885;42.208;24.952;2022-08-05T17:01:16;4.78;;;1.77;;
33553;SDS011;19885;42.208;24.952;2022-08-05T17:03:42;5.38;;;2.00;;
33553;SDS011;19885;42.208;24.952;2022-08-05T17:06:08;3.25;;;2.10;;
33553;SDS011;19885;42.208;24.952;2022-08-05T17:08:34;6.43;;;2.58;;
33553;SDS011;19885;42.208;24.952;2022-08-05T17:10:59;7.57;;;2.53;;
33553;SDS011;19885;42.208;24.952;2022-08-05T17:13:26;2.90;;;2.15;;
33553;SDS011;19885;42.208;24.952;2022-08-05T17:15:51;3.58;;;2.30;;
33553;SDS011;19885;42.208;24.952;2022-08-05T17:18:17;14.05;;;2.80;;
33553;SDS011;19885;42.208;24.952;2022-08-05T17:20:43;7.25;;;2.67;;
33553;SDS011;19885;42.208;24.952;2022-08-05T17:23:08;3.63;;;2.28;;
33553;SDS011;19885;42.208;24.952;2022-08-05T17:25:34;12.30;;;2.75;;
33553;SDS011;19885;42.208;24.952;2022-08-05T17:27:59;4.93;;;2.38;;
33553;SDS011;19885;42.208;24.952;2022-08-05T17:30:25;5.78;;;2.58;;
33553;SDS011;19885;42.208;24.952;2022-08-05T17:32:53;12.23;;;2.78;;
33553;SDS011;19885;42.208;24.952;2022-08-05T17:35:19;6.32;;;2.45;;
33553;SDS011;19885;42.208;24.952;2022-08-05T17:37:45;12.02;;;3.40;;
33553;SDS011;19885;42.208;24.952;2022-08-05T17:40:11;8.95;;;2.67;;
33553;SDS011;19885;42.208;24.952;2022-08-05T17:42:39;5.20;;;2.95;;
33553;SDS011;19885;42.208;24.952;2022-08-05T17:45:05;6.93;;;2.72;;
33553;SDS011;19885;42.208;24.952;2022-08-05T17:47:32;5.38;;;2.90;;
33553;SDS011;19885;42.208;24.952;2022-08-05T17:49:57;6.35;;;2.83;;
33553;SDS011;19885;42.208;24.952;2022-08-05T17:52:23;7.63;;;2.10;;
33553;SDS011;19885;42.208;24.952;2022-08-05T17:54:49;7.82;;;1.95;;
33553;SDS011;19885;42.208;24.952;2022-08-05T17:57:15;6.75;;;3.45;;
33553;SDS011;19885;42.208;24.952;2022-08-05T17:59:41;4.22;;;2.47;;
33553;SDS011;19885;42.208;24.952;2022-08-05T18:02:09;2.55;;;2.35;;
33553;SDS011;19885;42.208;24.952;2022-08-05T18:04:35;10.20;;;3.33;;
33553;SDS011;19885;42.208;24.952;2022-08-05T18:07:01;5.72;;;2.08;;
33553;SDS011;19885;42.208;24.952;2022-08-05T18:09:27;5.72;;;2.80;;
33553;SDS011;19885;42.208;24.952;2022-08-05T18:11:53;7.95;;;3.50;;
33553;SDS011;19885;42.208;24.952;2022-08-05T18:14:18;8.93;;;2.85;;
33553;SDS011;19885;42.208;24.952;2022-08-05T18:16:44;5.97;;;2.72;;
33553;SDS011;19885;42.208;24.952;2022-08-05T18:19:09;5.50;;;2.80;;
33553;SDS011;19885;42.208;24.952;2022-08-05T18:21:35;9.95;;;3.03;;
33553;SDS011;19885;42.208;24.952;2022-08-05T18:24:01;4.20;;;2.50;;
33553;SDS011;19885;42.208;24.952;2022-08-05T18:26:27;16.20;;;2.97;;
33553;SDS011;19885;42.208;24.952;2022-08-05T18:28:53;4.07;;;2.75;;
33553;SDS011;19885;42.208;24.952;2022-08-05T18:31:19;3.13;;;2.63;;
33553;SDS011;19885;42.208;24.952;2022-08-05T18:33:45;7.00;;;3.17;;
33553;SDS011;19885;42.208;24.952;2022-08-05T18:36:11;2.58;;;2.38;;
33553;SDS011;19885;42.208;24.952;2022-08-05T18:38:37;4.97;;;2.33;;
33553;SDS011;19885;42.208;24.952;2022-08-05T18:41:03;6.05;;;2.83;;
33553;SDS011;19885;42.208;24.952;2022-08-05T18:43:29;5.53;;;2.47;;
33553;SDS011;19885;42.208;24.952;2022-08-05T18:45:54;4.72;;;2.72;;
33553;SDS011;19885;42.208;24.952;2022-08-05T18:48:20;6.45;;;2.83;;
33553;SDS011;19885;42.208;24.952;2022-08-05T18:50:46;7.18;;;2.63;;
33553;SDS011;19885;42.208;24.952;2022-08-05T18:53:30;3.83;;;3.00;;
33553;SDS011;19885;42.208;24.952;2022-08-05T18:55:56;18.67;;;9.48;;
33553;SDS011;19885;42.208;24.952;2022-08-05T18:58:22;22.33;;;9.77;;
33553;SDS011;19885;42.208;24.952;2022-08-05T19:00:47;19.25;;;8.35;;
33553;SDS011;19885;42.208;24.952;2022-08-05T19:03:13;10.50;;;4.95;;
33553;SDS011;19885;42.208;24.952;2022-08-05T19:05:38;7.35;;;4.63;;
33553;SDS011;19885;42.208;24.952;2022-08-05T19:08:07;7.75;;;3.05;;
33553;SDS011;19885;42.208;24.952;2022-08-05T19:10:34;6.90;;;3.72;;
33553;SDS011;19885;42.208;24.952;2022-08-05T19:13:00;6.20;;;3.15;;
33553;SDS011;19885;42.208;24.952;2022-08-05T19:15:26;5.35;;;3.28;;
33553;SDS011;19885;42.208;24.952;2022-08-05T19:17:54;4.15;;;2.65;;
33553;SDS011;19885;42.208;24.952;2022-08-05T19:20:21;4.57;;;2.85;;
33553;SDS011;19885;42.208;24.952;2022-08-05T19:22:46;5.60;;;3.17;;
33553;SDS011;19885;42.208;24.952;2022-08-05T19:25:12;5.32;;;2.58;;
33553;SDS011;19885;42.208;24.952;2022-08-05T19:27:37;9.68;;;3.72;;
33553;SDS011;19885;42.208;24.952;2022-08-05T19:30:03;2.92;;;2.60;;
33553;SDS011;19885;42.208;24.952;2022-08-05T19:32:31;5.07;;;3.40;;
33553;SDS011;19885;42.208;24.952;2022-08-05T19:34:57;4.35;;;3.17;;
33553;SDS011;19885;42.208;24.952;2022-08-05T19:37:23;5.53;;;2.95;;
33553;SDS011;19885;42.208;24.952;2022-08-05T19:39:50;5.53;;;2.42;;
33553;SDS011;19885;42.208;24.952;2022-08-05T19:42:16;7.63;;;3.00;;
33553;SDS011;19885;42.208;24.952;2022-08-05T19:44:42;5.10;;;3.22;;
33553;SDS011;19885;42.208;24.952;2022-08-05T19:47:07;9.02;;;2.72;;
33553;SDS011;19885;42.208;24.952;2022-08-05T19:49:33;2.95;;;2.75;;
33553;SDS011;19885;42.208;24.952;2022-08-05T19:51:59;7.50;;;2.63;;
33553;SDS011;19885;42.208;24.952;2022-08-05T19:54:28;4.20;;;2.22;;
33553;SDS011;19885;42.208;24.952;2022-08-05T19:56:55;3.50;;;2.65;;
33553;SDS011;19885;42.208;24.952;2022-08-05T19:59:21;3.25;;;2.50;;
33553;SDS011;19885;42.208;24.952;2022-08-05T20:01:47;4.93;;;2.92;;
33553;SDS011;19885;42.208;24.952;2022-08-05T20:04:12;6.30;;;3.05;;
33553;SDS011;19885;42.208;24.952;2022-08-05T20:06:38;3.78;;;3.10;;
33553;SDS011;19885;42.208;24.952;2022-08-05T20:09:04;8.77;;;3.35;;
33553;SDS011;19885;42.208;24.952;2022-08-05T20:11:29;7.15;;;2.70;;
33553;SDS011;19885;42.208;24.952;2022-08-05T20:13:55;11.45;;;3.17;;
33553;SDS011;19885;42.208;24.952;2022-08-05T20:16:21;2.78;;;2.40;;
33553;SDS011;19885;42.208;24.952;2022-08-05T20:18:46;7.63;;;3.55;;
33553;SDS011;19885;42.208;24.952;2022-08-05T20:21:12;2.97;;;2.42;;
33553;SDS011;19885;42.208;24.952;2022-08-05T20:23:39;5.88;;;3.65;;
33553;SDS011;19885;42.208;24.952;2022-08-05T20:26:06;2.78;;;2.55;;
33553;SDS011;19885;42.208;24.952;2022-08-05T20:28:33;5.53;;;2.90;;
33553;SDS011;19885;42.208;24.952;2022-08-05T20:30:58;4.05;;;2.45;;
33553;SDS011;19885;42.208;24.952;2022-08-05T20:33:24;3.13;;;2.58;;
33553;SDS011;19885;42.208;24.952;2022-08-05T20:35:50;6.82;;;3.15;;
33553;SDS011;19885;42.208;24.952;2022-08-05T20:38:15;3.72;;;2.55;;
33553;SDS011;19885;42.208;24.952;2022-08-05T20:40:41;6.10;;;3.13;;
33553;SDS011;19885;42.208;24.952;2022-08-05T20:43:07;5.43;;;2.83;;
33553;SDS011;19885;42.208;24.952;2022-08-05T20:45:35;6.43;;;3.05;;
33553;SDS011;19885;42.208;24.952;2022-08-05T20:48:00;3.83;;;2.88;;
33553;SDS011;19885;42.208;24.952;2022-08-05T20:50:26;3.10;;;2.80;;
33553;SDS011;19885;42.208;24.952;2022-08-05T20:52:52;7.40;;;2.83;;
33553;SDS011;19885;42.208;24.952;2022-08-05T20:55:17;6.47;;;3.97;;
33553;SDS011;19885;42.208;24.952;2022-08-05T20:57:43;3.83;;;3.47;;
33553;SDS011;19885;42.208;24.952;2022-08-05T21:00:09;3.45;;;2.58;;
33553;SDS011;19885;42.208;24.952;2022-08-05T21:02:37;8.43;;;3.20;;
33553;SDS011;19885;42.208;24.952;2022-08-05T21:05:02;4.13;;;2.63;;
33553;SDS011;19885;42.208;24.952;2022-08-05T21:07:29;3.53;;;3.08;;
33553;SDS011;19885;42.208;24.952;2022-08-05T21:09:55;4.95;;;2.63;;
33553;SDS011;19885;42.208;24.952;2022-08-05T21:12:21;3.83;;;3.22;;
33553;SDS011;19885;42.208;24.952;2022-08-05T21:14:46;6.85;;;3.55;;
33553;SDS011;19885;42.208;24.952;2022-08-05T21:17:12;4.40;;;2.90;;
33553;SDS011;19885;42.208;24.952;2022-08-05T21:19:38;9.40;;;3.13;;
33553;SDS011;19885;42.208;24.952;2022-08-05T21:22:03;5.20;;;3.30;;
33553;SDS011;19885;42.208;24.952;2022-08-05T21:24:29;3.40;;;2.97;;
33553;SDS011;19885;42.208;24.952;2022-08-05T21:26:57;4.47;;;2.80;;
33553;SDS011;19885;42.208;24.952;2022-08-05T21:29:23;9.35;;;3.83;;
33553;SDS011;19885;42.208;24.952;2022-08-05T21:31:49;6.65;;;3.95;;
33553;SDS011;19885;42.208;24.952;2022-08-05T21:34:18;7.90;;;3.72;;
33553;SDS011;19885;42.208;24.952;2022-08-05T21:36:44;5.80;;;3.00;;
33553;SDS011;19885;42.208;24.952;2022-08-05T21:39:16;4.40;;;3.70;;
33553;SDS011;19885;42.208;24.952;2022-08-05T21:41:42;7.70;;;3.42;;
33553;SDS011;19885;42.208;24.952;2022-08-05T21:44:10;3.90;;;3.28;;
33553;SDS011;19885;42.208;24.952;2022-08-05T21:46:39;5.40;;;3.40;;
33553;SDS011;19885;42.208;24.952;2022-08-05T21:49:08;5.47;;;3.30;;
33553;SDS011;19885;42.208;24.952;2022-08-05T21:51:34;6.57;;;3.10;;
33553;SDS011;19885;42.208;24.952;2022-08-05T21:54:00;5.30;;;3.58;;
33553;SDS011;19885;42.208;24.952;2022-08-05T21:56:25;6.55;;;3.45;;
33553;SDS011;19885;42.208;24.952;2022-08-05T21:58:51;4.00;;;3.17;;
33553;SDS011;19885;42.208;24.952;2022-08-05T22:01:17;6.15;;;3.30;;
33553;SDS011;19885;42.208;24.952;2022-08-05T22:03:42;7.35;;;3.40;;
33553;SDS011;19885;42.208;24.952;2022-08-05T22:06:08;6.68;;;3.72;;
33553;SDS011;19885;42.208;24.952;2022-08-05T22:08:34;6.80;;;3.05;;
33553;SDS011;19885;42.208;24.952;2022-08-05T22:10:59;4.55;;;3.47;;
33553;SDS011;19885;42.208;24.952;2022-08-05T22:13:25;7.45;;;3.45;;
33553;SDS011;19885;42.208;24.952;2022-08-05T22:15:53;8.25;;;3.58;;
33553;SDS011;19885;42.208;24.952;2022-08-05T22:18:19;6.25;;;3.20;;
33553;SDS011;19885;42.208;24.952;2022-08-05T22:20:44;6.18;;;3.60;;
33553;SDS011;19885;42.208;24.952;2022-08-05T22:23:10;4.55;;;3.17;;
33553;SDS011;19885;42.208;24.952;2022-08-05T22:25:54;3.42;;;2.85;;
33553;SDS011;19885;42.208;24.952;2022-08-05T22:28:38;7.30;;;3.65;;
33553;SDS011;19885;42.208;24.952;2022-08-05T22:31:04;8.88;;;3.30;;
33553;SDS011;19885;42.208;24.952;2022-08-05T22:33:29;10.32;;;3.45;;
33553;SDS011;19885;42.208;24.952;2022-08-05T22:35:55;5.22;;;3.80;;
33553;SDS011;19885;42.208;24.952;2022-08-05T22:38:20;4.10;;;3.70;;
33553;SDS011;19885;42.208;24.952;2022-08-05T22:40:46;5.25;;;3.47;;
33553;SDS011;19885;42.208;24.952;2022-08-05T22:43:12;6.32;;;3.28;;
33553;SDS011;19885;42.208;24.952;2022-08-05T22:45:38;7.07;;;4.10;;
33553;SDS011;19885;42.208;24.952;2022-08-05T22:48:03;5.03;;;3.58;;
33553;SDS011;19885;42.208;24.952;2022-08-05T22:50:29;11.40;;;4.18;;
33553;SDS011;19885;42.208;24.952;2022-08-05T22:52:55;6.95;;;3.88;;
33553;SDS011;19885;42.208;24.952;2022-08-05T22:55:21;5.63;;;4.22;;
33553;SDS011;19885;42.208;24.952;2022-08-05T22:57:51;3.72;;;3.35;;
33553;SDS011;19885;42.208;24.952;2022-08-05T23:00:18;5.90;;;3.63;;
33553;SDS011;19885;42.208;24.952;2022-08-05T23:02:46;5.30;;;3.67;;
33553;SDS011;19885;42.208;24.952;2022-08-05T23:05:15;5.38;;;4.07;;
33553;SDS011;19885;42.208;24.952;2022-08-05T23:07:41;5.93;;;4.03;;
33553;SDS011;19885;42.208;24.952;2022-08-05T23:10:07;5.85;;;4.28;;
33553;SDS011;19885;42.208;24.952;2022-08-05T23:12:33;5.45;;;4.00;;
33553;SDS011;19885;42.208;24.952;2022-08-05T23:15:02;5.25;;;3.35;;
33553;SDS011;19885;42.208;24.952;2022-08-05T23:17:29;6.25;;;4.20;;
33553;SDS011;19885;42.208;24.952;2022-08-05T23:19:56;5.03;;;3.95;;
33553;SDS011;19885;42.208;24.952;2022-08-05T23:22:24;5.15;;;3.45;;
33553;SDS011;19885;42.208;24.952;2022-08-05T23:24:53;5.20;;;4.30;;
33553;SDS011;19885;42.208;24.952;2022-08-05T23:27:19;5.20;;;4.10;;
33553;SDS011;19885;42.208;24.952;2022-08-05T23:29:45;4.88;;;4.00;;
33553;SDS011;19885;42.208;24.952;2022-08-05T23:32:11;4.93;;;4.32;;
33553;SDS011;19885;42.208;24.952;2022-08-05T23:34:37;6.85;;;4.78;;
33553;SDS011;19885;42.208;24.952;2022-08-05T23:37:03;5.53;;;4.50;;
33553;SDS011;19885;42.208;24.952;2022-08-05T23:39:29;5.28;;;4.72;;
33553;SDS011;19885;42.208;24.952;2022-08-05T23:41:55;6.80;;;4.60;;
33553;SDS011;19885;42.208;24.952;2022-08-05T23:44:21;6.90;;;4.57;;
33553;SDS011;19885;42.208;24.952;2022-08-05T23:46:47;10.02;;;4.68;;
33553;SDS011;19885;42.208;24.952;2022-08-05T23:49:13;7.75;;;4.53;;
33553;SDS011;19885;42.208;24.952;2022-08-05T23:51:38;5.97;;;4.03;;
33553;SDS011;19885;42.208;24.952;2022-08-05T23:54:26;5.25;;;4.35;;
33553;SDS011;19885;42.208;24.952;2022-08-05T23:56:57;9.32;;;5.28;;
33553;SDS011;19885;42.208;24.952;2022-08-05T23:59:23;6.65;;;4.40;;
